createdAt,value
2024-02-07T00:02:48.516Z,12.68
2024-02-07T00:05:59.422Z,12.76
2024-02-07T00:09:07.553Z,12.77
2024-02-07T00:12:14.858Z,12.63
2024-02-07T00:15:23.624Z,12.68
2024-02-07T00:18:30.737Z,12.78
2024-02-07T00:21:42.102Z,12.88
2024-02-07T00:24:49.092Z,12.75
2024-02-07T00:27:56.752Z,12.72
2024-02-07T00:31:07.492Z,12.60
2024-02-07T00:34:16.954Z,12.62
2024-02-07T00:37:29.180Z,12.58
2024-02-07T00:40:52.708Z,12.61
2024-02-07T00:44:18.588Z,12.54
2024-02-07T00:47:34.509Z,12.60
2024-02-07T00:50:47.914Z,12.67
2024-02-07T00:53:59.846Z,12.70
2024-02-07T00:57:13.884Z,12.76
2024-02-07T01:00:25.786Z,12.76
2024-02-07T01:03:33.396Z,12.67
2024-02-07T01:06:43.233Z,12.77
2024-02-07T01:09:56.414Z,12.80
2024-02-07T01:13:04.519Z,12.76
2024-02-07T01:16:12.462Z,12.73
2024-02-07T01:19:22.907Z,12.55
2024-02-07T01:22:31.102Z,12.63
2024-02-07T01:25:44.305Z,12.48
2024-02-07T01:28:52.843Z,12.46
2024-02-07T01:32:06.194Z,12.50
2024-02-07T01:35:19.084Z,12.33
2024-02-07T01:38:28.077Z,12.49
2024-02-07T01:41:51.138Z,12.55
2024-02-07T01:45:33.860Z,12.60
2024-02-07T01:48:47.267Z,12.54
2024-02-07T01:51:57.040Z,12.58
2024-02-07T01:55:15.557Z,12.50
2024-02-07T01:58:35.003Z,12.48
2024-02-07T02:01:44.678Z,12.49
2024-02-07T02:04:54.924Z,12.41
2024-02-07T02:08:04.507Z,12.47
2024-02-07T02:11:20.774Z,12.56
2024-02-07T02:14:34.505Z,12.59
2024-02-07T02:17:48.774Z,12.59
2024-02-07T02:21:02.781Z,12.52
2024-02-07T02:24:50.904Z,12.46
2024-02-07T02:28:25.636Z,12.33
2024-02-07T02:31:42.283Z,12.34
2024-02-07T02:34:54.285Z,12.39
2024-02-07T02:38:04.213Z,12.26
2024-02-07T02:41:16.361Z,12.41
2024-02-07T02:44:25.101Z,12.31
2024-02-07T02:47:35.884Z,12.34
2024-02-07T02:50:43.985Z,11.74
2024-02-07T02:53:54.283Z,12.39
2024-02-07T02:57:03.676Z,12.40
2024-02-07T03:00:16.254Z,12.39
2024-02-07T03:03:26.171Z,12.33
2024-02-07T03:06:52.572Z,12.24
2024-02-07T03:09:59.873Z,12.31
2024-02-07T03:13:08.371Z,12.23
2024-02-07T03:16:17.016Z,12.23
2024-02-07T03:19:32.873Z,12.19
2024-02-07T03:22:40.838Z,12.13
2024-02-07T03:25:58.256Z,12.14
2024-02-07T03:29:05.841Z,12.08
2024-02-07T03:32:14.075Z,12.10
2024-02-07T03:35:23.270Z,12.02
2024-02-07T03:38:31.953Z,11.90
2024-02-07T03:41:42.930Z,11.93
2024-02-07T03:45:01.242Z,11.93
2024-02-07T03:48:14.231Z,11.79
2024-02-07T03:51:28.951Z,11.91
2024-02-07T03:54:37.332Z,11.92
2024-02-07T03:57:46.253Z,11.91
2024-02-07T04:00:54.950Z,11.77
2024-02-07T04:04:10.798Z,11.67
2024-02-07T04:07:23.475Z,11.83
2024-02-07T04:10:44.562Z,11.83
2024-02-07T04:13:51.377Z,11.73
2024-02-07T04:17:14.960Z,11.86
2024-02-07T04:20:34.969Z,11.88
2024-02-07T04:23:59.722Z,11.83
2024-02-07T04:27:22.346Z,11.73
2024-02-07T04:30:43.687Z,11.76
2024-02-07T04:34:07.121Z,11.68
2024-02-07T04:37:31.575Z,11.81
2024-02-07T04:40:54.729Z,11.91
2024-02-07T04:44:15.966Z,12.01
2024-02-07T04:47:36.541Z,12.01
2024-02-07T04:51:00.899Z,12.03
2024-02-07T04:54:23.367Z,11.93
2024-02-07T04:57:47.225Z,11.64
2024-02-07T05:01:07.763Z,11.75
2024-02-07T05:04:31.782Z,11.86
2024-02-07T05:07:54.669Z,11.92
2024-02-07T05:11:15.572Z,11.83
2024-02-07T05:14:38.317Z,11.87
2024-02-07T05:17:47.811Z,11.81
2024-02-07T05:20:55.563Z,11.82
2024-02-07T05:24:12.560Z,11.85
2024-02-07T05:27:20.420Z,11.81
2024-02-07T05:30:32.240Z,11.89
2024-02-07T05:33:41.597Z,11.80
2024-02-07T05:36:51.449Z,11.84
2024-02-07T05:39:59.669Z,11.83
2024-02-07T05:43:10.149Z,11.83
2024-02-07T05:46:20.083Z,11.88
2024-02-07T05:49:27.629Z,11.90
2024-02-07T05:52:34.710Z,11.77
2024-02-07T05:55:44.844Z,11.81
2024-02-07T05:58:53.001Z,11.74
2024-02-07T06:02:04.100Z,11.73
2024-02-07T06:05:12.381Z,11.76
2024-02-07T06:08:24.389Z,11.77
2024-02-07T06:11:43.395Z,11.75
2024-02-07T06:14:52.879Z,11.77
2024-02-07T06:18:07.394Z,11.56
2024-02-07T06:21:18.898Z,11.71
2024-02-07T06:24:26.966Z,11.71
2024-02-07T06:27:35.561Z,11.75
2024-02-07T06:30:42.786Z,11.88
2024-02-07T06:33:54.433Z,11.91
2024-02-07T06:37:02.092Z,11.81
2024-02-07T06:40:12.748Z,11.88
2024-02-07T06:43:20.015Z,11.80
2024-02-07T06:46:27.963Z,11.98
2024-02-07T06:49:41.807Z,12.05
2024-02-07T06:52:50.844Z,12.00
2024-02-07T06:56:00.263Z,12.04
2024-02-07T06:59:13.066Z,12.06
2024-02-07T07:02:37.491Z,11.99
2024-02-07T07:05:59.393Z,12.04
2024-02-07T07:09:07.070Z,12.07
2024-02-07T07:12:15.152Z,11.98
2024-02-07T07:15:30.607Z,11.88
2024-02-07T07:18:41.649Z,11.93
2024-02-07T07:21:51.543Z,11.94
2024-02-07T07:24:59.406Z,11.71
2024-02-07T07:28:06.830Z,11.66
2024-02-07T07:31:15.213Z,11.44
2024-02-07T07:34:28.772Z,11.39
2024-02-07T07:37:39.597Z,11.39
2024-02-07T07:40:46.931Z,11.47
2024-02-07T07:43:55.131Z,11.50
2024-02-07T07:47:03.020Z,11.32
2024-02-07T07:50:15.538Z,11.23
2024-02-07T07:53:25.626Z,11.28
2024-02-07T07:56:34.695Z,11.35
2024-02-07T07:59:45.207Z,11.38
2024-02-07T08:02:53.787Z,11.31
2024-02-07T08:06:01.812Z,11.24
2024-02-07T08:09:12.748Z,11.05
2024-02-07T08:12:20.360Z,10.99
2024-02-07T08:15:28.055Z,10.99
2024-02-07T08:18:36.806Z,11.07
2024-02-07T08:21:47.622Z,11.33
2024-02-07T08:25:13.523Z,11.25
2024-02-07T08:28:21.594Z,11.27
2024-02-07T08:31:29.428Z,11.46
2024-02-07T08:34:37.785Z,11.57
2024-02-07T08:37:45.557Z,11.59
2024-02-07T08:40:56.417Z,11.76
2024-02-07T08:44:04.336Z,11.60
2024-02-07T08:47:12.367Z,11.63
2024-02-07T08:50:20.512Z,11.67
2024-02-07T08:53:31.050Z,11.63
2024-02-07T08:56:40.867Z,11.81
2024-02-07T08:59:49.176Z,11.72
2024-02-07T09:02:56.515Z,11.71
2024-02-07T09:06:04.787Z,11.57
2024-02-07T09:09:11.988Z,11.58
2024-02-07T09:12:22.393Z,11.69
2024-02-07T09:15:29.042Z,11.80
2024-02-07T09:18:38.477Z,11.87
2024-02-07T09:21:45.281Z,11.98
2024-02-07T09:24:53.056Z,11.86
2024-02-07T09:28:02.634Z,11.83
2024-02-07T09:31:11.617Z,11.91
2024-02-07T09:34:21.084Z,11.92
2024-02-07T09:37:29.119Z,11.74
2024-02-07T09:40:36.526Z,11.74
2024-02-07T09:43:51.735Z,11.88
2024-02-07T09:47:04.216Z,11.79
2024-02-07T09:50:15.138Z,11.80
2024-02-07T09:53:25.380Z,11.70
2024-02-07T09:56:36.286Z,11.04
2024-02-07T09:59:48.074Z,11.78
2024-02-07T10:06:17.454Z,11.85
2024-02-07T10:09:26.804Z,11.86
2024-02-07T10:12:35.135Z,11.83
2024-02-07T10:15:50.517Z,11.85
2024-02-07T10:18:58.860Z,11.94
2024-02-07T10:22:30.035Z,11.86
2024-02-07T10:25:38.253Z,11.88
2024-02-07T10:28:50.476Z,11.98
2024-02-07T10:32:01.567Z,12.00
2024-02-07T10:35:14.346Z,12.15
2024-02-07T10:38:30.809Z,12.11
2024-02-07T10:41:42.217Z,12.08
2024-02-07T10:44:52.429Z,11.92
2024-02-07T10:48:06.190Z,12.08
2024-02-07T10:51:15.344Z,12.04
2024-02-07T10:54:23.325Z,12.05
2024-02-07T10:57:36.916Z,12.04
2024-02-07T11:00:46.329Z,12.00
2024-02-07T11:03:56.884Z,12.35
2024-02-07T11:07:05.889Z,12.36
2024-02-07T11:10:17.766Z,12.48
2024-02-07T11:13:27.542Z,12.46
2024-02-07T11:16:35.089Z,12.60
2024-02-07T11:19:47.333Z,12.64
2024-02-07T11:22:58.515Z,12.50
2024-02-07T11:26:09.152Z,12.52
2024-02-07T11:29:17.498Z,12.56
2024-02-07T11:32:29.675Z,12.48
2024-02-07T11:35:43.603Z,12.52
2024-02-07T11:38:57.907Z,12.67
2024-02-07T11:42:05.371Z,12.47
2024-02-07T11:45:19.480Z,12.29
2024-02-07T11:48:32.780Z,12.55
2024-02-07T11:51:46.330Z,12.78
2024-02-07T11:54:54.899Z,12.82
2024-02-07T11:58:14.036Z,12.69
2024-02-07T12:01:31.673Z,12.78
2024-02-07T12:04:46.947Z,12.88
2024-02-07T12:07:59.870Z,12.85
2024-02-07T12:11:11.231Z,12.92
2024-02-07T12:14:19.289Z,13.13
2024-02-07T12:17:27.187Z,13.07
2024-02-07T12:20:35.356Z,12.94
2024-02-07T12:23:45.760Z,12.87
2024-02-07T12:26:52.619Z,12.56
2024-02-07T12:30:03.326Z,11.90
2024-02-07T12:33:12.636Z,12.95
2024-02-07T12:36:21.569Z,13.08
2024-02-07T12:39:32.772Z,13.51
2024-02-07T12:42:41.407Z,13.62
2024-02-07T12:45:57.025Z,13.74
2024-02-07T12:49:05.228Z,13.71
2024-02-07T12:52:15.676Z,13.75
2024-02-07T12:55:27.790Z,13.80
2024-02-07T12:59:05.586Z,13.76
2024-02-07T13:02:19.632Z,13.64
2024-02-07T13:05:31.368Z,13.42
2024-02-07T13:08:39.344Z,13.10
2024-02-07T13:11:52.244Z,13.09
2024-02-07T13:15:02.749Z,13.22
2024-02-07T13:18:11.045Z,12.96
2024-02-07T13:21:22.285Z,12.77
2024-02-07T13:24:31.387Z,12.48
2024-02-07T13:27:46.002Z,12.12
2024-02-07T13:30:58.546Z,11.35
2024-02-07T13:34:07.634Z,10.90
2024-02-07T13:37:15.681Z,10.44
2024-02-07T13:40:30.140Z,10.26
2024-02-07T13:43:40.745Z,9.88
2024-02-07T13:46:49.728Z,9.59
2024-02-07T13:49:57.350Z,9.36
2024-02-07T13:53:11.871Z,9.23
2024-02-07T13:56:19.549Z,9.16
2024-02-07T13:59:31.918Z,8.95
2024-02-07T14:02:38.645Z,8.74
2024-02-07T14:05:46.259Z,8.71
2024-02-07T14:08:57.144Z,8.57
2024-02-07T14:12:11.090Z,8.48
2024-02-07T14:15:34.621Z,8.48
2024-02-07T14:18:46.458Z,8.45
2024-02-07T14:21:53.507Z,8.45
2024-02-07T14:25:01.540Z,8.20
2024-02-07T14:28:11.772Z,8.16
2024-02-07T14:31:23.899Z,8.09
2024-02-07T14:34:31.378Z,8.02
2024-02-07T14:37:42.717Z,7.79
2024-02-07T14:40:51.306Z,7.75
2024-02-07T14:44:05.111Z,7.71
2024-02-07T14:47:19.309Z,7.73
2024-02-07T14:50:28.678Z,7.47
2024-02-07T14:53:39.297Z,7.34
2024-02-07T14:56:48.620Z,7.40
2024-02-07T14:59:57.259Z,7.43
2024-02-07T15:03:12.808Z,7.62
2024-02-07T15:06:28.082Z,7.66
2024-02-07T15:09:40.498Z,7.57
2024-02-07T15:12:53.804Z,7.56
2024-02-07T15:16:05.794Z,7.43
2024-02-07T15:19:26.665Z,7.44
2024-02-07T15:22:38.508Z,7.40
2024-02-07T15:25:55.502Z,7.48
2024-02-07T15:29:05.412Z,7.32
2024-02-07T15:32:20.016Z,7.36
2024-02-07T15:35:35.054Z,7.23
2024-02-07T15:38:43.801Z,7.15
2024-02-07T15:41:58.116Z,7.24
2024-02-07T15:45:08.817Z,7.03
2024-02-07T15:48:21.346Z,6.95
2024-02-07T15:51:34.634Z,6.95
2024-02-07T15:54:42.465Z,6.90
2024-02-07T15:57:51.870Z,6.73
2024-02-07T16:01:03.912Z,6.92
2024-02-07T16:04:14.437Z,6.98
2024-02-07T16:07:25.613Z,6.62
2024-02-07T16:10:33.383Z,6.77
2024-02-07T16:13:41.508Z,6.84
2024-02-07T16:16:48.788Z,6.79
2024-02-07T16:19:59.330Z,6.79
2024-02-07T16:23:19.455Z,6.79
2024-02-07T16:26:37.466Z,6.80
2024-02-07T16:29:52.733Z,6.66
2024-02-07T16:33:10.193Z,6.55
2024-02-07T16:36:18.871Z,6.56
2024-02-07T16:39:31.418Z,6.71
2024-02-07T16:42:40.739Z,6.73
2024-02-07T16:45:59.596Z,6.69
2024-02-07T16:49:14.319Z,6.54
2024-02-07T16:52:27.832Z,6.35
2024-02-07T16:55:45.575Z,6.12
2024-02-07T16:59:01.316Z,6.06
2024-02-07T17:02:10.852Z,5.94
2024-02-07T17:05:19.796Z,5.94
2024-02-07T17:08:32.769Z,5.86
2024-02-07T17:11:46.260Z,5.75
2024-02-07T17:14:56.591Z,5.73
2024-02-07T17:18:11.960Z,5.79
2024-02-07T17:21:24.938Z,5.71
2024-02-07T17:24:36.554Z,5.72
2024-02-07T17:27:48.212Z,5.82
2024-02-07T17:31:00.948Z,5.97
2024-02-07T17:34:16.672Z,5.91
2024-02-07T17:37:31.558Z,5.91
2024-02-07T17:40:59.001Z,5.99
2024-02-07T17:44:21.712Z,5.97
2024-02-07T17:47:35.799Z,5.99
2024-02-07T17:51:00.004Z,5.98
2024-02-07T17:54:21.657Z,6.09
2024-02-07T17:57:33.354Z,6.25
2024-02-07T18:00:53.441Z,6.39
2024-02-07T18:04:04.171Z,6.35
2024-02-07T18:07:14.835Z,6.43
2024-02-07T18:10:40.000Z,6.47
2024-02-07T18:14:01.309Z,6.50
2024-02-07T18:17:21.819Z,6.55
2024-02-07T18:20:36.896Z,6.47
2024-02-07T18:23:49.561Z,6.56
2024-02-07T18:26:57.317Z,6.51
2024-02-07T18:30:07.951Z,6.56
2024-02-07T18:33:19.229Z,6.55
2024-02-07T18:36:35.183Z,6.62
2024-02-07T18:39:52.013Z,6.64
2024-02-07T18:43:07.645Z,6.70
2024-02-07T18:46:42.451Z,6.63
2024-02-07T18:50:03.741Z,6.65
2024-02-07T18:57:44.800Z,6.81
2024-02-07T19:01:10.178Z,6.93
2024-02-07T19:08:51.022Z,7.08
2024-02-07T19:12:19.522Z,7.09
2024-02-07T19:16:00.076Z,7.14
2024-02-07T19:20:01.916Z,7.16
2024-02-07T19:24:32.005Z,7.19
2024-02-07T19:28:36.226Z,7.26
2024-02-07T19:32:47.097Z,7.41
2024-02-07T19:36:31.980Z,7.53
2024-02-07T19:40:59.978Z,7.71
2024-02-07T19:45:12.003Z,7.82
2024-02-07T19:48:38.405Z,7.82
2024-02-07T19:52:02.169Z,7.85
2024-02-07T19:55:29.834Z,7.88
2024-02-07T20:04:02.440Z,7.82
2024-02-07T20:08:13.155Z,7.82
2024-02-07T20:17:14.699Z,7.96
2024-02-07T20:21:21.210Z,7.88
2024-02-07T20:24:35.852Z,7.95
2024-02-07T20:27:48.059Z,7.88
2024-02-07T20:30:56.366Z,7.92
2024-02-07T20:34:04.409Z,7.65
2024-02-07T20:37:12.997Z,7.65
2024-02-07T20:40:21.026Z,7.56
2024-02-07T20:43:32.598Z,7.48
2024-02-07T20:46:40.573Z,7.48
2024-02-07T20:49:48.888Z,7.28
2024-02-07T20:53:16.859Z,7.28
2024-02-07T21:01:38.974Z,7.18
2024-02-07T21:05:12.951Z,7.03
2024-02-07T21:08:42.707Z,6.91
2024-02-07T21:12:09.704Z,7.02
2024-02-07T21:15:40.512Z,7.07
2024-02-07T21:19:09.842Z,7.04
2024-02-07T21:23:08.565Z,6.96
2024-02-07T21:26:55.116Z,6.83
2024-02-07T21:30:42.941Z,6.91
2024-02-07T21:38:45.194Z,7.09
2024-02-07T21:41:53.700Z,7.17
2024-02-07T21:45:04.057Z,7.24
2024-02-07T21:48:12.257Z,7.10
2024-02-07T21:51:23.335Z,7.08
2024-02-07T21:54:30.743Z,7.07
2024-02-07T21:57:39.150Z,7.12
2024-02-07T22:00:46.527Z,7.11
2024-02-07T22:03:54.783Z,7.07
2024-02-07T22:07:07.428Z,7.13
2024-02-07T22:10:15.886Z,7.10
2024-02-07T22:13:24.529Z,7.13
2024-02-07T22:16:35.828Z,7.15
2024-02-07T22:19:43.904Z,7.06
2024-02-07T22:22:55.798Z,7.03
2024-02-07T22:26:11.406Z,6.81
2024-02-07T22:29:44.876Z,6.87
2024-02-07T22:33:42.533Z,6.91
2024-02-07T22:37:37.537Z,6.95
2024-02-07T22:41:17.342Z,7.01
2024-02-07T22:44:25.657Z,7.10
2024-02-07T22:47:32.918Z,7.16
2024-02-07T22:50:41.304Z,7.22
2024-02-07T22:53:50.911Z,7.31
2024-02-07T22:57:04.043Z,7.38
2024-02-07T23:00:16.630Z,7.43
2024-02-07T23:03:25.111Z,7.47
2024-02-07T23:06:37.499Z,7.48
2024-02-07T23:10:11.778Z,7.47
2024-02-07T23:14:02.264Z,7.45
2024-02-07T23:22:10.440Z,7.28
2024-02-07T23:25:23.306Z,7.12
2024-02-07T23:28:31.388Z,7.05
2024-02-07T23:31:46.389Z,7.02
2024-02-07T23:34:53.512Z,7.05
2024-02-07T23:38:02.580Z,7.05
2024-02-07T23:41:10.941Z,7.02
2024-02-07T23:44:20.920Z,7.08
2024-02-07T23:47:30.711Z,7.04
2024-02-07T23:50:39.217Z,7.00
2024-02-07T23:54:03.389Z,6.99
2024-02-07T23:57:45.214Z,7.04
